Time,TemperatureF,DewpointF,PressureIn,WindDirection,WindDirectionDegrees,WindSpeedMPH,WindSpeedGustMPH,Humidity,HourlyPrecipIn,Conditions,Clouds,dailyrainin,SoftwareType,DateUTC
2013-08-06 00:02:00,75.8,72.7,29.81,ENE,60,0.0,0.0,90,0.00,RA,SKC,0.00,WeatherDisplay:10.37,2013-08-06 05:02:00,
2013-08-06 00:07:00,75.5,72.7,29.82,ENE,60,0.0,0.0,91,0.00,RA,SKC,0.00,WeatherDisplay:10.37,2013-08-06 05:07:00,
2013-08-06 00:12:00,75.3,72.5,29.82,ENE,60,0.0,0.0,91,0.00,BKN,SKC,0.00,WeatherDisplay:10.37,2013-08-06 05:12:00,
2013-08-06 00:17:00,75.1,72.6,29.81,ENE,60,0.0,0.0,92,0.00,BKN,SKC,0.00,WeatherDisplay:10.37,2013-08-06 05:17:00,
2013-08-06 00:22:00,74.9,72.4,29.82,ENE,60,0.0,0.0,92,0.00,SCT,SKC,0.00,WeatherDisplay:10.37,2013-08-06 05:22:00,
2013-08-06 00:27:00,74.9,72.4,29.82,ENE,60,0.0,0.0,92,0.00,SCT,SKC,0.00,WeatherDisplay:10.37,2013-08-06 05:27:00,
2013-08-06 00:32:00,74.9,72.7,29.82,ESE,107,0.0,0.0,93,0.00,SCT,SKC,0.00,WeatherDisplay:10.37,2013-08-06 05:32:00,
2013-08-06 00:37:00,74.9,72.7,29.82,ESE,107,0.0,0.0,93,0.00,SCT,SKC,0.00,WeatherDisplay:10.37,2013-08-06 05:37:00,
2013-08-06 00:42:00,74.8,72.6,29.82,ESE,108,0.0,0.0,93,0.00,CLR,SKC,0.00,WeatherDisplay:10.37,2013-08-06 05:42:00,
2013-08-06 00:47:00,74.8,72.6,29.82,ESE,107,0.0,0.0,93,0.00,CLR,SKC,0.00,WeatherDisplay:10.37,2013-08-06 05:47:00,
2013-08-06 00:52:00,74.8,72.6,29.82,ESE,107,0.0,0.0,93,0.00,CLR,SKC,0.00,WeatherDisplay:10.37,2013-08-06 05:52:00,
2013-08-06 00:57:00,74.7,72.5,29.81,ESE,109,0.0,0.0,93,0.00,CLR,SKC,0.00,WeatherDisplay:10.37,2013-08-06 05:57:00,
2013-08-06 01:02:00,74.5,72.3,29.82,SE,131,0.0,0.0,93,0.00,SCT,SKC,0.00,WeatherDisplay:10.37,2013-08-06 06:02:00,
2013-08-06 01:07:00,74.4,72.2,29.81,SE,131,0.0,0.0,93,0.00,SCT,SKC,0.00,WeatherDisplay:10.37,2013-08-06 06:07:00,
2013-08-06 01:12:00,74.3,72.5,29.81,SE,131,0.0,0.0,94,0.00,SCT,SKC,0.00,WeatherDisplay:10.37,2013-08-06 06:12:00,
2013-08-06 01:17:00,74.3,72.5,29.81,SE,131,0.0,0.0,94,0.00,SCT,SKC,0.00,WeatherDisplay:10.37,2013-08-06 06:17:00,
2013-08-06 01:22:00,74.4,72.6,29.81,SE,131,0.0,0.0,94,0.00,SCT,SKC,0.00,WeatherDisplay:10.37,2013-08-06 06:22:00,
2013-08-06 01:27:00,74.3,72.5,29.81,SE,131,0.0,0.0,94,0.00,SCT,SKC,0.00,WeatherDisplay:10.37,2013-08-06 06:27:00,
2013-08-06 01:32:00,74.2,72.4,29.81,SE,131,0.0,0.0,94,0.00,SCT,SKC,0.00,WeatherDisplay:10.37,2013-08-06 06:32:00,
2013-08-06 01:37:00,74.2,72.4,29.81,ESE,117,0.0,0.0,94,0.00,SCT,SKC,0.00,WeatherDisplay:10.37,2013-08-06 06:37:00,
2013-08-06 01:42:00,74.2,72.4,29.80,ESE,117,0.0,0.0,94,0.00,CLR,SKC,0.00,WeatherDisplay:10.37,2013-08-06 06:42:00,
2013-08-06 01:47:00,74.0,72.2,29.80,North,3,0.0,0.0,94,0.00,CLR,SKC,0.00,WeatherDisplay:10.37,2013-08-06 06:47:00,
2013-08-06 01:52:00,73.9,72.1,29.80,North,3,0.0,0.0,94,0.00,CLR,SKC,0.00,WeatherDisplay:10.37,2013-08-06 06:52:00,
2013-08-06 01:57:00,73.7,71.9,29.80,North,4,0.0,0.0,94,0.00,CLR,SKC,0.00,WeatherDisplay:10.37,2013-08-06 06:57:00,
2013-08-06 02:02:00,73.7,72.2,29.80,North,4,0.0,0.0,95,0.00,BKN,SKC,0.00,WeatherDisplay:10.37,2013-08-06 07:02:00,
2013-08-06 02:07:00,73.6,72.1,29.79,North,3,0.0,0.0,95,0.00,BKN,SKC,0.00,WeatherDisplay:10.37,2013-08-06 07:07:00,
2013-08-06 02:12:00,73.5,72.0,29.79,North,3,0.0,0.0,95,0.00,BKN,SKC,0.00,WeatherDisplay:10.37,2013-08-06 07:12:00,
2013-08-06 02:17:00,73.4,71.9,29.79,North,5,0.0,0.0,95,0.00,BKN,SKC,0.00,WeatherDisplay:10.37,2013-08-06 07:17:00,
2013-08-06 02:22:00,73.2,71.7,29.78,North,7,0.0,0.0,95,0.00,SCT,SKC,0.00,WeatherDisplay:10.37,2013-08-06 07:22:00,
2013-08-06 02:27:00,73.1,71.6,29.78,North,8,0.0,0.0,95,0.00,SCT,SKC,0.00,WeatherDisplay:10.37,2013-08-06 07:27:00,
2013-08-06 02:32:00,72.9,71.4,29.78,North,7,0.0,0.0,95,0.00,SCT,SKC,0.00,WeatherDisplay:10.37,2013-08-06 07:32:00,
2013-08-06 02:37:00,72.8,71.6,29.78,North,7,0.0,0.0,96,0.00,SCT,SKC,0.00,WeatherDisplay:10.37,2013-08-06 07:37:00,
2013-08-06 02:42:00,72.8,71.6,29.78,North,8,0.0,0.0,96,0.00,CLR,SKC,0.00,WeatherDisplay:10.37,2013-08-06 07:42:00,
2013-08-06 02:47:00,72.8,71.6,29.79,North,8,0.0,0.0,96,0.00,CLR,SKC,0.00,WeatherDisplay:10.37,2013-08-06 07:47:00,
2013-08-06 02:52:00,72.7,71.5,29.79,North,8,0.0,0.0,96,0.00,CLR,SKC,0.00,WeatherDisplay:10.37,2013-08-06 07:52:00,
2013-08-06 02:57:00,72.6,71.4,29.79,North,7,0.0,0.0,96,0.00,CLR,SKC,0.00,WeatherDisplay:10.37,2013-08-06 07:57:00,
2013-08-06 03:03:00,72.6,71.7,29.79,North,7,0.0,0.0,97,0.00,CLR,SKC,0.00,WeatherDisplay:10.37,2013-08-06 08:03:00,
2013-08-06 03:08:00,72.6,71.7,29.79,North,8,0.0,0.0,97,0.00,CLR,SKC,0.00,WeatherDisplay:10.37,2013-08-06 08:08:00,
2013-08-06 03:13:00,72.6,71.7,29.78,North,8,0.0,0.0,97,0.00,CLR,SKC,0.00,WeatherDisplay:10.37,2013-08-06 08:13:00,
2013-08-06 03:18:00,72.5,71.6,29.78,North,8,0.0,0.0,97,0.00,CLR,SKC,0.00,WeatherDisplay:10.37,2013-08-06 08:18:00,
2013-08-06 03:23:00,72.3,71.1,29.79,North,8,0.0,0.0,96,0.00,SCT,SKC,0.00,WeatherDisplay:10.37,2013-08-06 08:23:00,
2013-08-06 03:28:00,72.2,71.3,29.78,North,7,0.0,0.0,97,0.00,SCT,SKC,0.00,WeatherDisplay:10.37,2013-08-06 08:28:00,
2013-08-06 03:33:00,72.2,71.3,29.78,North,8,0.0,0.0,97,0.00,SCT,SKC,0.00,WeatherDisplay:10.37,2013-08-06 08:33:00,
2013-08-06 03:38:00,72.1,71.2,29.78,North,8,0.0,0.0,97,0.00,SCT,SKC,0.00,WeatherDisplay:10.37,2013-08-06 08:38:00,
2013-08-06 03:43:00,72.1,71.2,29.78,NE,41,0.0,0.0,97,0.00,BKN,SKC,0.00,WeatherDisplay:10.37,2013-08-06 08:43:00,
2013-08-06 03:48:00,72.1,71.2,29.78,NE,41,0.0,0.0,97,0.00,BKN,SKC,0.00,WeatherDisplay:10.37,2013-08-06 08:48:00,
2013-08-06 03:53:00,72.0,71.1,29.78,NE,41,0.0,0.0,97,0.00,BKN,SKC,0.00,WeatherDisplay:10.37,2013-08-06 08:53:00,
2013-08-06 03:58:00,72.0,71.1,29.78,NE,41,0.0,0.0,97,0.00,BKN,SKC,0.00,WeatherDisplay:10.37,2013-08-06 08:58:00,
2013-08-06 04:03:00,71.8,70.9,29.78,NE,41,0.0,0.0,97,0.00,BKN,SKC,0.00,WeatherDisplay:10.37,2013-08-06 09:03:00,
2013-08-06 04:08:00,71.8,70.9,29.78,NE,41,0.0,0.0,97,0.00,BKN,SKC,0.00,WeatherDisplay:10.37,2013-08-06 09:08:00,
2013-08-06 04:13:00,71.8,70.9,29.77,NE,41,0.0,0.0,97,0.00,BKN,SKC,0.00,WeatherDisplay:10.37,2013-08-06 09:13:00,
2013-08-06 04:18:00,71.8,70.9,29.77,NE,41,0.0,0.0,97,0.00,BKN,SKC,0.00,WeatherDisplay:10.37,2013-08-06 09:18:00,
2013-08-06 04:23:00,71.7,70.8,29.77,NE,41,0.0,0.0,97,0.00,SCT,SKC,0.00,WeatherDisplay:10.37,2013-08-06 09:23:00,
2013-08-06 04:28:00,71.7,70.8,29.77,NE,41,0.0,0.0,97,0.00,SCT,SKC,0.00,WeatherDisplay:10.37,2013-08-06 09:28:00,
2013-08-06 04:33:00,71.7,71.1,29.76,NE,41,0.0,0.0,98,0.00,SCT,SKC,0.00,WeatherDisplay:10.37,2013-08-06 09:33:00,
2013-08-06 04:38:00,71.8,71.2,29.76,NE,41,0.0,0.0,98,0.00,SCT,SKC,0.00,WeatherDisplay:10.37,2013-08-06 09:38:00,
2013-08-06 04:43:00,71.8,70.9,29.76,NE,41,0.0,0.0,97,0.00,BKN,SKC,0.00,WeatherDisplay:10.37,2013-08-06 09:43:00,
2013-08-06 04:48:00,71.7,70.8,29.76,NNE,20,0.0,0.0,97,0.00,BKN,SKC,0.00,WeatherDisplay:10.37,2013-08-06 09:48:00,
2013-08-06 04:53:00,71.8,70.9,29.76,NNE,20,0.0,0.0,97,0.00,BKN,SKC,0.00,WeatherDisplay:10.37,2013-08-06 09:53:00,
2013-08-06 04:58:00,71.8,70.9,29.76,NNE,20,0.0,0.0,97,0.00,BKN,SKC,0.00,WeatherDisplay:10.37,2013-08-06 09:58:00,
2013-08-06 05:03:00,71.8,70.9,29.76,NNE,20,0.0,0.0,97,0.00,OVC,SKC,0.00,WeatherDisplay:10.37,2013-08-06 10:03:00,
2013-08-06 05:08:00,71.9,71.0,29.75,NNE,20,0.0,0.0,97,0.00,OVC,SKC,0.00,WeatherDisplay:10.37,2013-08-06 10:08:00,
2013-08-06 05:13:00,71.9,71.0,29.75,NNE,20,0.0,0.0,97,0.00,OVC,SKC,0.00,WeatherDisplay:10.37,2013-08-06 10:13:00,
2013-08-06 05:18:00,72.0,71.1,29.75,NNE,20,0.0,0.0,97,0.00,OVC,SKC,0.00,WeatherDisplay:10.37,2013-08-06 10:18:00,
2013-08-06 05:23:00,72.1,71.2,29.75,NNE,20,0.0,0.0,97,0.00,OVC,SKC,0.00,WeatherDisplay:10.37,2013-08-06 10:23:00,
2013-08-06 05:28:00,72.1,71.2,29.75,NNE,20,0.0,0.0,97,0.00,OVC,SKC,0.00,WeatherDisplay:10.37,2013-08-06 10:28:00,
2013-08-06 05:33:00,72.1,71.2,29.76,NNE,20,0.0,0.0,97,0.00,OVC,SKC,0.00,WeatherDisplay:10.37,2013-08-06 10:33:00,
2013-08-06 05:38:00,72.1,71.2,29.76,NNE,20,0.0,0.0,97,0.00,OVC,SKC,0.00,WeatherDisplay:10.37,2013-08-06 10:38:00,
2013-08-06 05:43:00,72.1,71.2,29.76,NNE,20,0.0,0.0,97,0.00,OVC,SKC,0.00,WeatherDisplay:10.37,2013-08-06 10:43:00,
2013-08-06 05:48:00,72.1,71.2,29.76,NNE,20,0.0,0.0,97,0.00,OVC,SKC,0.00,WeatherDisplay:10.37,2013-08-06 10:48:00,
2013-08-06 05:53:00,72.1,71.2,29.77,NNE,20,0.0,0.0,97,0.00,OVC,SKC,0.00,WeatherDisplay:10.37,2013-08-06 10:53:00,
2013-08-06 05:58:00,72.2,71.3,29.77,NNE,20,0.0,0.0,97,0.00,OVC,SKC,0.00,WeatherDisplay:10.37,2013-08-06 10:58:00,
2013-08-06 06:03:00,72.2,71.3,29.76,NNE,20,0.0,0.0,97,0.00,OVC,SKC,0.00,WeatherDisplay:10.37,2013-08-06 11:03:00,
2013-08-06 06:08:00,72.2,71.3,29.77,NNE,12,0.0,0.0,97,0.00,OVC,SKC,0.00,WeatherDisplay:10.37,2013-08-06 11:08:00,
2013-08-06 06:13:00,72.2,71.3,29.78,NNE,15,0.0,0.0,97,0.00,OVC,SKC,0.00,WeatherDisplay:10.37,2013-08-06 11:13:00,
2013-08-06 06:18:00,72.1,71.2,29.78,NNE,33,0.0,0.0,97,0.00,OVC,SKC,0.00,WeatherDisplay:10.37,2013-08-06 11:18:00,
2013-08-06 06:23:00,72.1,71.2,29.78,NNE,33,0.0,0.0,97,0.00,OVC,SKC,0.00,WeatherDisplay:10.37,2013-08-06 11:23:00,
2013-08-06 06:28:00,72.1,71.2,29.77,East,89,0.0,0.0,97,0.00,OVC,SKC,0.00,WeatherDisplay:10.37,2013-08-06 11:28:00,
2013-08-06 06:33:00,72.2,71.3,29.78,SE,128,0.0,0.0,97,0.00,OVC,SKC,0.00,WeatherDisplay:10.37,2013-08-06 11:33:00,
2013-08-06 06:38:00,72.2,71.3,29.79,SSE,149,0.0,0.0,97,0.00,OVC,SKC,0.00,WeatherDisplay:10.37,2013-08-06 11:38:00,
2013-08-06 06:44:00,72.3,71.4,29.79,SSE,149,0.0,0.0,97,0.00,OVC,SKC,0.00,WeatherDisplay:10.37,2013-08-06 11:44:00,
2013-08-06 06:49:00,72.3,71.4,29.79,ESE,104,0.0,0.0,97,0.00,OVC,SKC,0.00,WeatherDisplay:10.37,2013-08-06 11:49:00,
2013-08-06 06:54:00,72.5,71.6,29.79,East,79,0.0,0.0,97,0.00,OVC,SKC,0.00,WeatherDisplay:10.37,2013-08-06 11:54:00,
2013-08-06 06:59:00,72.6,71.7,29.80,East,79,0.0,0.0,97,0.00,OVC,SKC,0.00,WeatherDisplay:10.37,2013-08-06 11:59:00,
2013-08-06 07:04:00,72.6,71.7,29.80,East,79,0.0,0.0,97,0.00,BKN,SKC,0.00,WeatherDisplay:10.37,2013-08-06 12:04:00,
2013-08-06 07:09:00,72.6,71.7,29.78,SE,146,0.0,0.0,97,0.00,BKN,SKC,0.00,WeatherDisplay:10.37,2013-08-06 12:09:00,
2013-08-06 07:14:00,72.6,71.7,29.78,SE,146,0.0,0.0,97,0.00,BKN,SKC,0.00,WeatherDisplay:10.37,2013-08-06 12:14:00,
2013-08-06 07:19:00,72.6,71.7,29.78,SSW,203,0.0,0.0,97,0.00,BKN,SKC,0.00,WeatherDisplay:10.37,2013-08-06 12:19:00,
2013-08-06 07:24:00,72.5,71.6,29.81,SW,217,0.0,0.0,97,0.00,BKN,SKC,0.00,WeatherDisplay:10.37,2013-08-06 12:24:00,
2013-08-06 07:29:00,72.5,71.6,29.82,West,270,0.0,0.0,97,0.00,BKN,SKC,0.00,WeatherDisplay:10.37,2013-08-06 12:29:00,
2013-08-06 07:34:00,72.0,69.5,29.83,WNW,301,3.9,6.9,92,0.00,BKN,SKC,0.00,WeatherDisplay:10.37,2013-08-06 12:34:00,
2013-08-06 07:39:00,70.7,67.0,29.83,NNW,347,7.0,13.8,88,0.00,BKN,SKC,0.00,WeatherDisplay:10.37,2013-08-06 12:39:00,
2013-08-06 07:44:00,68.8,65.7,29.84,NNW,338,2.7,4.6,90,0.00,OVC,SKC,0.00,WeatherDisplay:10.37,2013-08-06 12:44:00,
2013-08-06 07:49:00,67.5,65.1,29.85,NE,35,2.8,4.6,92,0.01,RA,SKC,0.01,WeatherDisplay:10.37,2013-08-06 12:49:00,
2013-08-06 07:54:00,66.8,65.0,29.85,NW,326,3.4,8.1,94,0.01,RA,SKC,0.01,WeatherDisplay:10.37,2013-08-06 12:54:00,
2013-08-06 07:59:00,66.6,65.1,29.84,NNW,332,4.5,8.1,95,0.02,RA,SKC,0.02,WeatherDisplay:10.37,2013-08-06 12:59:00,
2013-08-06 08:04:00,66.5,65.0,29.83,NW,312,2.2,4.6,95,0.02,RA,SKC,0.02,WeatherDisplay:10.37,2013-08-06 13:04:00,
2013-08-06 08:09:00,66.4,64.9,29.83,North,354,0.8,2.3,95,0.02,OVC,SKC,0.02,WeatherDisplay:10.37,2013-08-06 13:09:00,
2013-08-06 08:14:00,66.3,64.8,29.83,NNE,25,1.8,3.5,95,0.02,OVC,SKC,0.02,WeatherDisplay:10.37,2013-08-06 13:14:00,
2013-08-06 08:19:00,66.3,65.1,29.83,NNE,28,0.4,2.0,96,0.02,OVC,SKC,0.02,WeatherDisplay:10.37,2013-08-06 13:19:00,
2013-08-06 08:24:00,66.4,64.9,29.83,NE,34,2.2,2.3,95,0.02,OVC,SKC,0.02,WeatherDisplay:10.37,2013-08-06 13:24:00,
2013-08-06 08:29:00,66.6,65.4,29.83,NNE,12,0.2,3.5,96,0.02,OVC,SKC,0.02,WeatherDisplay:10.37,2013-08-06 13:29:00,
2013-08-06 08:34:00,66.8,65.3,29.83,NNW,341,0.7,2.3,95,0.02,-RA,SKC,0.02,WeatherDisplay:10.37,2013-08-06 13:34:00,
2013-08-06 08:39:00,67.0,65.5,29.84,NNE,16,0.4,1.1,95,0.02,-RA,SKC,0.02,WeatherDisplay:10.37,2013-08-06 13:39:00,
2013-08-06 08:44:00,67.2,65.7,29.84,East,91,0.0,0.0,95,0.02,BKN,SKC,0.02,WeatherDisplay:10.37,2013-08-06 13:44:00,
2013-08-06 08:49:00,67.5,65.7,29.84,SSE,166,0.0,0.0,94,0.01,BKN,SKC,0.02,WeatherDisplay:10.37,2013-08-06 13:49:00,
2013-08-06 08:54:00,67.5,65.7,29.85,SSE,166,0.0,0.0,94,0.01,BKN,SKC,0.02,WeatherDisplay:10.37,2013-08-06 13:54:00,
2013-08-06 08:59:00,67.4,65.6,29.88,West,273,4.7,6.0,94,0.00,BKN,SKC,0.02,WeatherDisplay:10.37,2013-08-06 13:59:00,
2013-08-06 09:04:00,67.5,65.4,29.91,West,269,9.4,17.3,93,0.00,BKN,SKC,0.02,WeatherDisplay:10.37,2013-08-06 14:04:00,
2013-08-06 09:09:00,67.2,65.1,29.90,NW,314,3.2,6.9,93,0.00,BKN,SKC,0.03,WeatherDisplay:10.37,2013-08-06 14:09:00,
2013-08-06 09:14:00,66.6,64.8,29.89,NW,321,1.9,4.6,94,0.15,RA,SKC,0.17,WeatherDisplay:10.37,2013-08-06 14:14:00,
2013-08-06 09:19:00,66.0,64.5,29.87,NE,54,3.9,5.8,95,0.27,RA,SKC,0.29,WeatherDisplay:10.37,2013-08-06 14:19:00,
2013-08-06 09:24:00,65.6,64.1,29.86,NNE,30,3.4,5.8,95,0.33,RA,SKC,0.35,WeatherDisplay:10.37,2013-08-06 14:24:00,
2013-08-06 09:29:00,65.5,64.3,29.84,ENE,77,2.7,5.8,96,0.33,RA,SKC,0.35,WeatherDisplay:10.37,2013-08-06 14:29:00,
2013-08-06 09:34:00,65.8,64.6,29.82,ESE,108,8.4,12.7,96,0.33,OVC,SKC,0.35,WeatherDisplay:10.37,2013-08-06 14:34:00,
2013-08-06 09:39:00,66.1,64.6,29.83,NE,54,6.6,11.5,95,0.33,OVC,SKC,0.35,WeatherDisplay:10.37,2013-08-06 14:39:00,
2013-08-06 09:44:00,66.6,64.5,29.82,East,96,4.2,6.9,93,0.33,OVC,SKC,0.35,WeatherDisplay:10.37,2013-08-06 14:44:00,
2013-08-06 09:49:00,66.9,64.5,29.82,SE,128,7.1,15.0,92,0.33,OVC,SKC,0.35,WeatherDisplay:10.37,2013-08-06 14:49:00,
2013-08-06 09:54:00,67.1,64.7,29.80,East,84,4.0,10.4,92,0.33,OVC,SKC,0.35,WeatherDisplay:10.37,2013-08-06 14:54:00,
2013-08-06 09:59:00,67.4,65.0,29.80,SE,130,6.0,10.4,92,0.33,OVC,SKC,0.35,WeatherDisplay:10.37,2013-08-06 14:59:00,
2013-08-06 10:04:00,67.8,65.4,29.80,East,97,3.4,8.1,92,0.33,SCT,SKC,0.35,WeatherDisplay:10.37,2013-08-06 15:04:00,
2013-08-06 10:09:00,68.3,65.9,29.80,East,80,4.2,5.0,92,0.33,SCT,SKC,0.35,WeatherDisplay:10.37,2013-08-06 15:09:00,
2013-08-06 10:14:00,68.4,65.7,29.80,SE,129,1.2,3.5,91,0.18,SCT,SKC,0.35,WeatherDisplay:10.37,2013-08-06 15:14:00,
2013-08-06 10:19:00,68.5,65.8,29.79,East,79,3.5,4.6,91,0.06,SCT,SKC,0.35,WeatherDisplay:10.37,2013-08-06 15:19:00,
2013-08-06 10:24:00,68.6,65.9,29.80,ENE,69,3.2,4.6,91,0.00,CLR,SKC,0.35,WeatherDisplay:10.37,2013-08-06 15:24:00,
2013-08-06 10:29:00,68.7,66.0,29.80,SE,129,3.4,4.6,91,0.00,CLR,SKC,0.35,WeatherDisplay:10.37,2013-08-06 15:29:00,
2013-08-06 10:34:00,68.8,65.7,29.79,ESE,113,1.1,2.3,90,0.00,CLR,SKC,0.35,WeatherDisplay:10.37,2013-08-06 15:34:00,
2013-08-06 10:39:00,68.9,66.2,29.79,SSE,165,2.6,3.5,91,0.00,CLR,SKC,0.35,WeatherDisplay:10.37,2013-08-06 15:39:00,
2013-08-06 10:44:00,69.0,66.3,29.79,SSE,163,2.8,4.6,91,0.00,CLR,SKC,0.35,WeatherDisplay:10.37,2013-08-06 15:44:00,
2013-08-06 10:49:00,69.2,66.8,29.78,SSE,149,1.7,3.5,92,0.00,CLR,SKC,0.35,WeatherDisplay:10.37,2013-08-06 15:49:00,
2013-08-06 10:54:00,69.4,67.0,29.78,SSW,203,2.8,4.6,92,0.00,CLR,SKC,0.35,WeatherDisplay:10.37,2013-08-06 15:54:00,
2013-08-06 10:59:00,69.7,67.0,29.78,South,170,3.9,9.2,91,0.00,CLR,SKC,0.35,WeatherDisplay:10.37,2013-08-06 15:59:00,
2013-08-06 11:04:00,70.0,67.6,29.78,SSW,195,2.0,5.8,92,0.00,CLR,SKC,0.35,WeatherDisplay:10.37,2013-08-06 16:04:00,
2013-08-06 11:09:00,70.3,67.2,29.78,South,176,4.0,6.0,90,0.00,CLR,SKC,0.35,WeatherDisplay:10.37,2013-08-06 16:09:00,
2013-08-06 11:14:00,70.4,67.3,29.78,SSW,204,4.4,9.2,90,0.00,CLR,SKC,0.35,WeatherDisplay:10.37,2013-08-06 16:14:00,
2013-08-06 11:19:00,70.6,67.5,29.78,WSW,243,5.4,5.8,90,0.00,CLR,SKC,0.35,WeatherDisplay:10.37,2013-08-06 16:19:00,
2013-08-06 11:24:00,70.8,67.7,29.78,South,184,3.3,5.8,90,0.00,CLR,SKC,0.35,WeatherDisplay:10.37,2013-08-06 16:24:00,
2013-08-06 11:29:00,71.2,67.8,29.78,SSE,153,2.4,5.8,89,0.00,CLR,SKC,0.35,WeatherDisplay:10.37,2013-08-06 16:29:00,
2013-08-06 11:34:00,71.5,68.1,29.78,SE,137,4.7,5.8,89,0.00,CLR,SKC,0.35,WeatherDisplay:10.37,2013-08-06 16:34:00,
2013-08-06 11:39:00,71.9,67.8,29.78,South,173,6.1,10.0,87,0.00,CLR,SKC,0.35,WeatherDisplay:10.37,2013-08-06 16:39:00,
2013-08-06 11:44:00,72.4,68.3,29.77,SE,135,3.4,5.8,87,0.00,SCT,SKC,0.35,WeatherDisplay:10.37,2013-08-06 16:44:00,
2013-08-06 11:49:00,73.4,69.0,29.77,SW,222,3.2,6.0,86,0.00,SCT,SKC,0.35,WeatherDisplay:10.37,2013-08-06 16:49:00,
2013-08-06 11:54:00,74.4,69.2,29.76,South,174,5.6,6.9,84,0.00,SCT,SKC,0.35,WeatherDisplay:10.37,2013-08-06 16:54:00,
2013-08-06 11:59:00,75.4,69.5,29.75,SE,136,5.1,6.9,82,0.00,SCT,SKC,0.35,WeatherDisplay:10.37,2013-08-06 16:59:00,
2013-08-06 12:04:00,76.8,69.8,29.75,SSW,203,3.9,6.9,79,0.00,SCT,SKC,0.35,WeatherDisplay:10.37,2013-08-06 17:04:00,
2013-08-06 12:09:00,77.7,69.5,29.75,SSE,160,5.8,6.9,76,0.00,SCT,SKC,0.35,WeatherDisplay:10.37,2013-08-06 17:09:00,
2013-08-06 12:14:00,78.3,69.3,29.75,SSE,150,5.8,9.2,74,0.00,SCT,SKC,0.35,WeatherDisplay:10.37,2013-08-06 17:14:00,
2013-08-06 12:19:00,79.0,69.6,29.74,SSE,151,5.1,8.1,73,0.00,SCT,SKC,0.35,WeatherDisplay:10.37,2013-08-06 17:19:00,
2013-08-06 12:24:00,79.8,70.0,29.75,East,83,2.4,5.8,72,0.00,CLR,SKC,0.35,WeatherDisplay:10.37,2013-08-06 17:24:00,
2013-08-06 12:27:00,80.1,69.0,29.75,SE,143,6.3,11.5,69,0.00,CLR,SKC,0.35,WeatherDisplay:10.37,2013-08-06 17:27:00,
2013-08-06 12:32:00,80.7,69.6,29.75,SSW,198,6.3,9.2,69,0.00,CLR,SKC,0.35,WeatherDisplay:10.37,2013-08-06 17:32:00,
2013-08-06 12:37:00,80.9,69.3,29.74,ESE,103,7.3,11.5,68,0.00,CLR,SKC,0.35,WeatherDisplay:10.37,2013-08-06 17:37:00,
2013-08-06 12:42:00,81.7,70.1,29.74,South,171,4.3,8.1,68,0.00,CLR,SKC,0.35,WeatherDisplay:10.37,2013-08-06 17:42:00,
2013-08-06 12:47:00,82.3,70.7,29.74,SW,219,1.4,4.0,68,0.00,CLR,SKC,0.35,WeatherDisplay:10.37,2013-08-06 17:47:00,
2013-08-06 12:52:00,82.4,70.3,29.74,SSE,160,3.5,9.0,67,0.00,CLR,SKC,0.35,WeatherDisplay:10.37,2013-08-06 17:52:00,
2013-08-06 12:57:00,82.8,70.3,29.74,SE,141,4.9,9.2,66,0.00,CLR,SKC,0.35,WeatherDisplay:10.37,2013-08-06 17:57:00,
2013-08-06 13:02:00,83.4,71.3,29.74,SSE,152,4.3,9.2,67,0.00,SCT,SKC,0.35,WeatherDisplay:10.37,2013-08-06 18:02:00,
2013-08-06 13:07:00,84.1,71.1,29.74,South,169,4.8,6.9,65,0.00,SCT,SKC,0.35,WeatherDisplay:10.37,2013-08-06 18:07:00,
2013-08-06 13:12:00,84.3,70.8,29.74,SW,217,2.2,9.2,64,0.00,SCT,SKC,0.35,WeatherDisplay:10.37,2013-08-06 18:12:00,
2013-08-06 13:17:00,84.7,71.2,29.74,SSE,165,5.0,11.5,64,0.00,SCT,SKC,0.35,WeatherDisplay:10.37,2013-08-06 18:17:00,
2013-08-06 13:22:00,85.0,70.5,29.74,SE,138,7.9,11.5,62,0.00,SCT,SKC,0.35,WeatherDisplay:10.37,2013-08-06 18:22:00,
2013-08-06 13:27:00,85.2,70.2,29.74,SE,124,5.2,8.1,61,0.00,SCT,SKC,0.35,WeatherDisplay:10.37,2013-08-06 18:27:00,
2013-08-06 13:32:00,85.4,70.4,29.74,South,175,6.2,10.4,61,0.00,SCT,SKC,0.35,WeatherDisplay:10.37,2013-08-06 18:32:00,
2013-08-06 13:37:00,85.3,70.8,29.74,SSE,160,4.6,10.0,62,0.00,SCT,SKC,0.35,WeatherDisplay:10.37,2013-08-06 18:37:00,
2013-08-06 13:42:00,85.2,70.7,29.74,SE,140,6.2,8.1,62,0.00,CLR,SKC,0.35,WeatherDisplay:10.37,2013-08-06 18:42:00,
2013-08-06 13:47:00,85.3,70.8,29.74,South,170,8.3,15.0,62,0.00,CLR,SKC,0.35,WeatherDisplay:10.37,2013-08-06 18:47:00,
2013-08-06 13:52:00,85.6,71.6,29.74,SE,126,1.3,5.0,63,0.00,CLR,SKC,0.35,WeatherDisplay:10.37,2013-08-06 18:52:00,
2013-08-06 13:57:00,85.9,70.9,29.74,South,176,5.6,9.2,61,0.00,CLR,SKC,0.35,WeatherDisplay:10.37,2013-08-06 18:57:00,
2013-08-06 14:02:00,86.1,71.6,29.74,SSE,166,2.6,9.2,62,0.00,CLR,SKC,0.35,WeatherDisplay:10.37,2013-08-06 19:02:00,
2013-08-06 14:07:00,86.5,71.9,29.74,SE,124,5.5,9.2,62,0.00,CLR,SKC,0.35,WeatherDisplay:10.37,2013-08-06 19:07:00,
2013-08-06 14:12:00,86.7,71.2,29.74,SE,142,6.8,11.5,60,0.00,CLR,SKC,0.35,WeatherDisplay:10.37,2013-08-06 19:12:00,
2013-08-06 14:17:00,86.2,70.7,29.74,South,170,6.3,11.5,60,0.00,CLR,SKC,0.35,WeatherDisplay:10.37,2013-08-06 19:17:00,
2013-08-06 14:22:00,86.2,71.2,29.74,SW,214,8.0,11.5,61,0.00,CLR,SKC,0.35,WeatherDisplay:10.37,2013-08-06 19:22:00,
2013-08-06 14:27:00,86.6,71.5,29.74,SW,231,5.1,8.1,61,0.00,CLR,SKC,0.35,WeatherDisplay:10.37,2013-08-06 19:27:00,
2013-08-06 14:32:00,86.7,71.6,29.74,WSW,237,5.4,8.1,61,0.00,CLR,SKC,0.35,WeatherDisplay:10.37,2013-08-06 19:32:00,
2013-08-06 14:37:00,86.9,71.3,29.74,SW,221,3.7,5.0,60,0.00,CLR,SKC,0.35,WeatherDisplay:10.37,2013-08-06 19:37:00,
2013-08-06 14:42:00,87.1,71.5,29.74,WSW,240,3.7,6.9,60,0.00,CLR,SKC,0.35,WeatherDisplay:10.37,2013-08-06 19:42:00,
2013-08-06 14:47:00,87.1,71.5,29.73,South,185,3.5,5.8,60,0.00,CLR,SKC,0.35,WeatherDisplay:10.37,2013-08-06 19:47:00,
2013-08-06 14:52:00,87.3,71.2,29.74,SSW,195,5.2,8.1,59,0.00,CLR,SKC,0.35,WeatherDisplay:10.37,2013-08-06 19:52:00,
2013-08-06 14:57:00,87.4,71.8,29.74,SE,134,1.7,3.5,60,0.00,CLR,SKC,0.35,WeatherDisplay:10.37,2013-08-06 19:57:00,
2013-08-06 15:02:00,87.4,71.8,29.74,SW,233,5.9,12.0,60,0.00,CLR,SKC,0.35,WeatherDisplay:10.37,2013-08-06 20:02:00,
2013-08-06 15:07:00,87.0,71.9,29.74,SSW,195,3.7,6.9,61,0.00,CLR,SKC,0.35,WeatherDisplay:10.37,2013-08-06 20:07:00,
2013-08-06 15:12:00,86.8,71.7,29.74,SW,236,4.0,5.0,61,0.00,CLR,SKC,0.35,WeatherDisplay:10.37,2013-08-06 20:12:00,
2013-08-06 15:17:00,87.1,72.0,29.74,SW,229,4.2,5.8,61,0.00,CLR,SKC,0.35,WeatherDisplay:10.37,2013-08-06 20:17:00,
2013-08-06 15:22:00,87.2,72.1,29.74,SW,230,2.1,4.6,61,0.00,CLR,SKC,0.35,WeatherDisplay:10.37,2013-08-06 20:22:00,
2013-08-06 15:27:00,87.7,73.1,29.74,SSW,204,5.9,11.5,62,0.00,CLR,SKC,0.35,WeatherDisplay:10.37,2013-08-06 20:27:00,
2013-08-06 15:32:00,87.9,72.8,29.74,SW,233,2.7,4.0,61,0.00,CLR,SKC,0.35,WeatherDisplay:10.37,2013-08-06 20:32:00,
2013-08-06 15:33:00,87.9,72.8,29.74,WSW,242,3.0,4.0,61,0.00,CLR,SKC,0.35,WeatherDisplay:10.37,2013-08-06 20:33:00,
2013-08-06 15:38:00,87.8,72.7,29.74,SW,221,2.8,8.1,61,0.00,CLR,SKC,0.35,WeatherDisplay:10.37,2013-08-06 20:38:00,
2013-08-06 15:43:00,87.8,73.2,29.74,South,176,1.8,8.1,62,0.00,CLR,SKC,0.35,WeatherDisplay:10.37,2013-08-06 20:43:00,
2013-08-06 15:48:00,88.5,72.8,29.74,West,259,3.1,5.8,60,0.00,CLR,SKC,0.35,WeatherDisplay:10.37,2013-08-06 20:48:00,
2013-08-06 15:53:00,88.2,73.0,29.74,South,176,3.7,5.8,61,0.00,CLR,SKC,0.35,WeatherDisplay:10.37,2013-08-06 20:53:00,
2013-08-06 15:58:00,87.9,72.8,29.74,SW,227,2.5,6.9,61,0.00,CLR,SKC,0.35,WeatherDisplay:10.37,2013-08-06 20:58:00,
2013-08-06 16:03:00,87.7,73.1,29.74,SE,143,1.3,3.5,62,0.00,SCT,SKC,0.35,WeatherDisplay:10.37,2013-08-06 21:03:00,
2013-08-06 16:08:00,87.8,72.7,29.75,SSW,212,4.0,8.1,61,0.00,SCT,SKC,0.35,WeatherDisplay:10.37,2013-08-06 21:08:00,
2013-08-06 16:13:00,87.3,72.7,29.75,West,275,2.2,3.5,62,0.00,SCT,SKC,0.35,WeatherDisplay:10.37,2013-08-06 21:13:00,
2013-08-06 16:18:00,87.6,73.0,29.75,South,191,3.7,3.7,62,0.00,SCT,SKC,0.35,WeatherDisplay:10.37,2013-08-06 21:18:00,
2013-08-06 16:23:00,87.3,72.7,29.74,West,262,3.4,5.0,62,0.00,BKN,SKC,0.35,WeatherDisplay:10.37,2013-08-06 21:23:00,
2013-08-06 16:28:00,87.3,73.2,29.75,SW,236,3.0,4.0,63,0.00,BKN,SKC,0.35,WeatherDisplay:10.37,2013-08-06 21:28:00,
2013-08-06 16:33:00,87.5,73.3,29.74,West,274,3.8,5.8,63,0.00,BKN,SKC,0.35,WeatherDisplay:10.37,2013-08-06 21:33:00,
2013-08-06 16:38:00,87.5,72.9,29.74,SW,214,1.4,3.5,62,0.00,BKN,SKC,0.35,WeatherDisplay:10.37,2013-08-06 21:38:00,
2013-08-06 16:43:00,87.4,73.3,29.74,SW,219,2.4,4.0,63,0.00,BKN,SKC,0.35,WeatherDisplay:10.37,2013-08-06 21:43:00,
2013-08-06 16:48:00,87.1,73.0,29.74,SSE,153,1.8,3.5,63,0.00,BKN,SKC,0.35,WeatherDisplay:10.37,2013-08-06 21:48:00,
2013-08-06 16:53:00,87.1,73.9,29.74,SW,226,0.8,2.3,65,0.00,BKN,SKC,0.35,WeatherDisplay:10.37,2013-08-06 21:53:00,
2013-08-06 16:58:00,87.0,73.3,29.74,SE,124,2.0,2.3,64,0.00,BKN,SKC,0.35,WeatherDisplay:10.37,2013-08-06 21:58:00,
2013-08-06 17:03:00,87.6,74.4,29.74,SW,223,1.3,2.3,65,0.00,BKN,SKC,0.35,WeatherDisplay:10.37,2013-08-06 22:03:00,
2013-08-06 17:08:00,88.2,74.0,29.74,WSW,255,2.4,4.6,63,0.00,BKN,SKC,0.35,WeatherDisplay:10.37,2013-08-06 22:08:00,
2013-08-06 17:13:00,88.7,74.0,29.74,West,259,2.3,3.5,62,0.00,BKN,SKC,0.35,WeatherDisplay:10.37,2013-08-06 22:13:00,
2013-08-06 17:18:00,87.8,73.2,29.74,West,259,1.6,2.3,62,0.00,BKN,SKC,0.35,WeatherDisplay:10.37,2013-08-06 22:18:00,
2013-08-06 17:23:00,87.1,73.0,29.74,SW,225,1.2,2.3,63,0.00,BKN,SKC,0.35,WeatherDisplay:10.37,2013-08-06 22:23:00,
2013-08-06 17:28:00,86.8,73.2,29.74,WSW,240,1.3,2.3,64,0.00,BKN,SKC,0.35,WeatherDisplay:10.37,2013-08-06 22:28:00,
2013-08-06 17:33:00,86.7,73.1,29.74,WNW,288,0.1,1.1,64,0.00,BKN,SKC,0.35,WeatherDisplay:10.37,2013-08-06 22:33:00,
2013-08-06 17:44:00,86.6,73.4,29.74,SW,215,0.0,0.0,65,0.00,BKN,SKC,0.35,WeatherDisplay:10.37,2013-08-06 22:44:00,
2013-08-06 17:49:00,86.6,73.4,29.74,SW,215,0.0,0.0,65,0.00,BKN,SKC,0.35,WeatherDisplay:10.37,2013-08-06 22:49:00,
2013-08-06 17:54:00,86.6,73.4,29.74,SW,215,0.0,0.0,65,0.00,SCT,SKC,0.35,WeatherDisplay:10.37,2013-08-06 22:54:00,
2013-08-06 17:59:00,86.6,73.4,29.74,SW,215,0.0,0.0,65,0.00,SCT,SKC,0.35,WeatherDisplay:10.37,2013-08-06 22:59:00,
2013-08-06 18:04:00,86.6,73.4,29.74,SW,215,0.0,0.0,65,0.00,CLR,SKC,0.35,WeatherDisplay:10.37,2013-08-06 23:04:00,
2013-08-06 18:09:00,86.6,73.4,29.74,SW,215,0.0,0.0,65,0.00,CLR,SKC,0.35,WeatherDisplay:10.37,2013-08-06 23:09:00,
2013-08-06 18:14:00,86.6,73.4,29.74,SW,215,0.0,0.0,65,0.00,CLR,SKC,0.35,WeatherDisplay:10.37,2013-08-06 23:14:00,
2013-08-06 18:19:00,86.6,73.4,29.74,SW,215,0.0,0.0,65,0.00,CLR,SKC,0.35,WeatherDisplay:10.37,2013-08-06 23:19:00,
2013-08-06 18:24:00,86.6,73.4,29.74,SW,215,0.0,0.0,65,0.00,SCT,SKC,0.35,WeatherDisplay:10.37,2013-08-06 23:24:00,
2013-08-06 18:29:00,86.6,73.4,29.74,SW,215,0.0,0.0,65,0.00,SCT,SKC,0.35,WeatherDisplay:10.37,2013-08-06 23:29:00,
2013-08-06 18:34:00,86.6,73.4,29.74,SW,215,0.0,0.0,65,0.00,SCT,SKC,0.35,WeatherDisplay:10.37,2013-08-06 23:34:00,
2013-08-06 18:39:00,86.6,73.4,29.74,SW,215,0.0,0.0,65,0.00,SCT,SKC,0.35,WeatherDisplay:10.37,2013-08-06 23:39:00,
2013-08-06 18:44:00,86.6,73.4,29.74,SW,215,0.0,0.0,65,0.00,SCT,SKC,0.35,WeatherDisplay:10.37,2013-08-06 23:44:00,
2013-08-06 18:49:00,86.6,73.4,29.74,SW,215,0.0,0.0,65,0.00,SCT,SKC,0.35,WeatherDisplay:10.37,2013-08-06 23:49:00,
2013-08-06 18:54:00,86.6,73.4,29.74,SW,215,0.0,0.0,65,0.00,SCT,SKC,0.35,WeatherDisplay:10.37,2013-08-06 23:54:00,
2013-08-06 18:59:00,86.6,73.4,29.74,SW,215,0.0,0.0,65,0.00,SCT,SKC,0.35,WeatherDisplay:10.37,2013-08-06 23:59:00,
2013-08-06 19:04:00,86.6,73.4,29.74,SW,215,0.0,0.0,65,0.00,CLR,SKC,0.35,WeatherDisplay:10.37,2013-08-07 00:04:00,
2013-08-06 19:09:00,86.6,73.4,29.74,SW,215,0.0,0.0,65,0.00,CLR,SKC,0.35,WeatherDisplay:10.37,2013-08-07 00:09:00,
2013-08-06 19:14:00,86.6,73.4,29.74,SW,215,0.0,0.0,65,0.00,CLR,SKC,0.35,WeatherDisplay:10.37,2013-08-07 00:14:00,
2013-08-06 19:19:00,86.6,73.4,29.74,SW,215,0.0,0.0,65,0.00,CLR,SKC,0.35,WeatherDisplay:10.37,2013-08-07 00:19:00,
2013-08-06 19:24:00,86.6,73.4,29.74,SW,215,0.0,0.0,65,0.00,CLR,SKC,0.35,WeatherDisplay:10.37,2013-08-07 00:24:00,
2013-08-06 19:29:00,86.6,73.4,29.74,SW,215,0.0,0.0,65,0.00,CLR,SKC,0.35,WeatherDisplay:10.37,2013-08-07 00:29:00,
2013-08-06 19:34:00,86.6,73.4,29.74,SW,215,0.0,0.0,65,0.00,CLR,SKC,0.35,WeatherDisplay:10.37,2013-08-07 00:34:00,
2013-08-06 19:39:00,86.6,73.4,29.74,SW,215,0.0,0.0,65,0.00,CLR,SKC,0.35,WeatherDisplay:10.37,2013-08-07 00:39:00,
2013-08-06 19:44:00,86.6,73.4,29.74,SW,215,0.0,0.0,65,0.00,CLR,SKC,0.35,WeatherDisplay:10.37,2013-08-07 00:44:00,
2013-08-06 19:49:00,86.6,73.4,29.74,SW,215,0.0,0.0,65,0.00,CLR,SKC,0.35,WeatherDisplay:10.37,2013-08-07 00:49:00,
2013-08-06 19:54:00,86.6,73.4,29.74,SW,215,0.0,0.0,65,0.00,CLR,SKC,0.35,WeatherDisplay:10.37,2013-08-07 00:54:00,
2013-08-06 19:59:00,86.6,73.4,29.74,SW,215,0.0,0.0,65,0.00,CLR,SKC,0.35,WeatherDisplay:10.37,2013-08-07 00:59:00,
2013-08-06 20:04:00,86.6,73.4,29.74,SW,215,0.0,0.0,65,0.00,CLR,SKC,0.35,WeatherDisplay:10.37,2013-08-07 01:04:00,
2013-08-06 20:09:00,86.6,73.4,29.74,SW,215,0.0,0.0,65,0.00,CLR,SKC,0.35,WeatherDisplay:10.37,2013-08-07 01:09:00,
2013-08-06 20:14:00,86.6,73.4,29.74,SW,215,0.0,0.0,65,0.00,CLR,SKC,0.35,WeatherDisplay:10.37,2013-08-07 01:14:00,
2013-08-06 20:19:00,86.6,73.4,29.74,SW,215,0.0,0.0,65,0.00,CLR,SKC,0.35,WeatherDisplay:10.37,2013-08-07 01:19:00,
2013-08-06 20:24:00,86.6,73.4,29.74,SW,215,0.0,0.0,65,0.00,CLR,SKC,0.35,WeatherDisplay:10.37,2013-08-07 01:24:00,
2013-08-06 20:29:00,86.6,73.4,29.74,SW,215,0.0,0.0,65,0.00,CLR,SKC,0.35,WeatherDisplay:10.37,2013-08-07 01:29:00,
2013-08-06 20:34:00,86.6,73.4,29.74,SW,215,0.0,0.0,65,0.00,CLR,SKC,0.35,WeatherDisplay:10.37,2013-08-07 01:34:00,
2013-08-06 20:39:00,86.6,73.4,29.74,SW,215,0.0,0.0,65,0.00,CLR,SKC,0.35,WeatherDisplay:10.37,2013-08-07 01:39:00,
2013-08-06 20:44:00,86.6,73.4,29.74,SW,215,0.0,0.0,65,0.00,CLR,SKC,0.35,WeatherDisplay:10.37,2013-08-07 01:44:00,
2013-08-06 20:49:00,86.6,73.4,29.74,SW,215,0.0,0.0,65,0.00,CLR,SKC,0.35,WeatherDisplay:10.37,2013-08-07 01:49:00,
2013-08-06 20:54:00,86.6,73.4,29.74,SW,215,0.0,0.0,65,0.00,CLR,SKC,0.35,WeatherDisplay:10.37,2013-08-07 01:54:00,
2013-08-06 20:59:00,86.6,73.4,29.74,SW,215,0.0,0.0,65,0.00,CLR,SKC,0.35,WeatherDisplay:10.37,2013-08-07 01:59:00,
2013-08-06 21:04:00,86.6,73.4,29.74,SW,215,0.0,0.0,65,0.00,CLR,SKC,0.35,WeatherDisplay:10.37,2013-08-07 02:04:00,
2013-08-06 21:09:00,86.6,73.4,29.74,SW,215,0.0,0.0,65,0.00,CLR,SKC,0.35,WeatherDisplay:10.37,2013-08-07 02:09:00,
2013-08-06 21:14:00,86.6,73.4,29.74,SW,215,0.0,0.0,65,0.00,CLR,SKC,0.35,WeatherDisplay:10.37,2013-08-07 02:14:00,
2013-08-06 21:19:00,86.6,73.4,29.74,SW,215,0.0,0.0,65,0.00,CLR,SKC,0.35,WeatherDisplay:10.37,2013-08-07 02:19:00,
2013-08-06 21:25:00,86.6,73.4,29.74,SW,215,0.0,0.0,65,0.00,CLR,SKC,0.35,WeatherDisplay:10.37,2013-08-07 02:25:00,
2013-08-06 21:30:00,86.6,73.4,29.74,SW,215,0.0,0.0,65,0.00,CLR,SKC,0.35,WeatherDisplay:10.37,2013-08-07 02:30:00,
2013-08-06 21:35:00,86.6,73.4,29.74,SW,215,0.0,0.0,65,0.00,CLR,SKC,0.35,WeatherDisplay:10.37,2013-08-07 02:35:00,
2013-08-06 21:40:00,86.6,73.4,29.74,SW,215,0.0,0.0,65,0.00,CLR,SKC,0.35,WeatherDisplay:10.37,2013-08-07 02:40:00,
2013-08-06 21:45:00,86.6,73.4,29.74,SW,215,0.0,0.0,65,0.00,CLR,SKC,0.35,WeatherDisplay:10.37,2013-08-07 02:45:00,
2013-08-06 21:50:00,86.6,73.4,29.74,SW,215,0.0,0.0,65,0.00,CLR,SKC,0.35,WeatherDisplay:10.37,2013-08-07 02:50:00,
2013-08-06 21:55:00,86.6,73.4,29.74,SW,215,0.0,0.0,65,0.00,CLR,SKC,0.35,WeatherDisplay:10.37,2013-08-07 02:55:00,
2013-08-06 22:00:00,86.6,73.4,29.74,SW,215,0.0,0.0,65,0.00,CLR,SKC,0.35,WeatherDisplay:10.37,2013-08-07 03:00:00,
2013-08-06 22:05:00,86.6,73.4,29.74,SW,215,0.0,0.0,65,0.00,CLR,SKC,0.35,WeatherDisplay:10.37,2013-08-07 03:05:00,
2013-08-06 22:10:00,86.6,73.4,29.74,SW,215,0.0,0.0,65,0.00,CLR,SKC,0.35,WeatherDisplay:10.37,2013-08-07 03:10:00,
2013-08-06 22:15:00,86.6,73.4,29.74,SW,215,0.0,0.0,65,0.00,CLR,SKC,0.35,WeatherDisplay:10.37,2013-08-07 03:15:00,
2013-08-06 22:20:00,86.6,73.4,29.74,SW,215,0.0,0.0,65,0.00,CLR,SKC,0.35,WeatherDisplay:10.37,2013-08-07 03:20:00,
2013-08-06 22:25:00,86.6,73.4,29.74,SW,215,0.0,0.0,65,0.00,CLR,SKC,0.35,WeatherDisplay:10.37,2013-08-07 03:25:00,
2013-08-06 22:30:00,86.6,73.4,29.74,SW,215,0.0,0.0,65,0.00,CLR,SKC,0.35,WeatherDisplay:10.37,2013-08-07 03:30:00,
2013-08-06 22:35:00,86.6,73.4,29.74,SW,215,0.0,0.0,65,0.00,CLR,SKC,0.35,WeatherDisplay:10.37,2013-08-07 03:35:00,
2013-08-06 22:40:00,86.6,73.4,29.74,SW,215,0.0,0.0,65,0.00,CLR,SKC,0.35,WeatherDisplay:10.37,2013-08-07 03:40:00,
2013-08-06 22:45:00,86.6,73.4,29.74,SW,215,0.0,0.0,65,0.00,SCT,SKC,0.35,WeatherDisplay:10.37,2013-08-07 03:45:00,
2013-08-06 22:50:00,86.6,73.4,29.74,SW,215,0.0,0.0,65,0.00,SCT,SKC,0.35,WeatherDisplay:10.37,2013-08-07 03:50:00,
2013-08-06 22:55:00,86.6,73.4,29.74,SW,215,0.0,0.0,65,0.00,SCT,SKC,0.35,WeatherDisplay:10.37,2013-08-07 03:55:00,
2013-08-06 23:00:00,86.6,73.4,29.74,SW,215,0.0,0.0,65,0.00,SCT,SKC,0.35,WeatherDisplay:10.37,2013-08-07 04:00:00,
2013-08-06 23:01:00,86.6,73.4,29.74,SW,215,0.0,0.0,65,0.00,SCT,SKC,0.35,WeatherDisplay:10.37,2013-08-07 04:01:00,
2013-08-06 23:06:00,86.6,73.4,29.74,SW,215,0.0,0.0,65,0.00,SCT,SKC,0.35,WeatherDisplay:10.37,2013-08-07 04:06:00,
2013-08-06 23:11:00,86.6,73.4,29.74,SW,215,0.0,0.0,65,0.00,SCT,SKC,0.35,WeatherDisplay:10.37,2013-08-07 04:11:00,
2013-08-06 23:16:00,86.6,73.4,29.74,SW,215,0.0,0.0,65,0.00,SCT,SKC,0.35,WeatherDisplay:10.37,2013-08-07 04:16:00,
2013-08-06 23:21:00,86.6,73.4,29.74,SW,215,0.0,0.0,65,0.00,SCT,SKC,0.35,WeatherDisplay:10.37,2013-08-07 04:21:00,
2013-08-06 23:26:00,86.6,73.4,29.74,SW,215,0.0,0.0,65,0.00,SCT,SKC,0.35,WeatherDisplay:10.37,2013-08-07 04:26:00,
2013-08-06 23:31:00,86.6,73.4,29.74,SW,215,0.0,0.0,65,0.00,SCT,SKC,0.35,WeatherDisplay:10.37,2013-08-07 04:31:00,
2013-08-06 23:36:00,86.6,73.4,29.74,SW,215,0.0,0.0,65,0.00,SCT,SKC,0.35,WeatherDisplay:10.37,2013-08-07 04:36:00,
2013-08-06 23:41:00,86.6,73.4,29.74,SW,215,0.0,0.0,65,0.00,CLR,SKC,0.35,WeatherDisplay:10.37,2013-08-07 04:41:00,
2013-08-06 23:46:00,86.6,73.4,29.74,SW,215,0.0,0.0,65,0.00,CLR,SKC,0.35,WeatherDisplay:10.37,2013-08-07 04:46:00,
2013-08-06 23:51:00,86.6,73.4,29.74,SW,215,0.0,0.0,65,0.00,CLR,SKC,0.35,WeatherDisplay:10.37,2013-08-07 04:51:00,
2013-08-06 23:57:00,86.6,73.4,29.74,SW,215,0.0,0.0,65,0.00,CLR,SKC,0.35,WeatherDisplay:10.37,2013-08-07 04:57:00,